Time;durP1;ratioP1;P1;durP2;ratioP2;P2;SDS_P1;SDS_P2;PMS_P1;PMS_P2;Temp;Humidity;BMP_temperature;BMP_pressure;BME280_temperature;BME280_humidity;BME280_pressure;Samples;Min_cycle;Max_cycle;Signal;HPM_P1;HPM_P2
2022/12/15 00:39:57;;;;;;;30.43;15.37;;;-2.10;81.60;;;;;;4995674;28;20959;-78
2022/12/15 00:42:24;;;;;;;36.47;15.33;;;-2.10;81.50;;;;;;4998179;28;20499;-79
2022/12/15 00:44:51;;;;;;;32.57;15.97;;;-2.10;81.40;;;;;;4995756;28;20995;-79
2022/12/15 00:47:18;;;;;;;29.87;16.50;;;-2.10;81.40;;;;;;4995981;28;20539;-78
2022/12/15 01:20:17;;;;;;;31.67;15.50;;;-2.30;80.80;;;;;;5007351;28;20432;-78
2022/12/15 01:22:45;;;;;;;31.80;16.87;;;-2.30;80.80;;;;;;5007387;28;20460;-78
2022/12/15 01:25:12;;;;;;;30.50;16.63;;;-2.30;80.90;;;;;;4997441;28;20504;-78
2022/12/15 01:27:39;;;;;;;38.60;16.90;;;-2.30;81.00;;;;;;4997770;28;20460;-78
2022/12/15 01:30:08;;;;;;;36.33;17.70;;;-2.30;81.10;;;;;;5000388;28;20552;-78
2022/12/15 01:32:35;;;;;;;29.30;17.37;;;-2.30;81.00;;;;;;5000445;28;20860;-78
2022/12/15 01:35:02;;;;;;;38.67;16.97;;;-2.30;81.50;;;;;;4999249;28;20473;-78
2022/12/15 01:37:30;;;;;;;29.07;16.33;;;-2.40;82.00;;;;;;5000060;28;20452;-78
2022/12/15 01:42:42;;;;;;;35.87;16.63;;;-2.40;83.00;;;;;;4999720;28;20412;-78
2022/12/15 01:45:50;;;;;;;33.67;16.80;;;-2.40;82.80;;;;;;5000214;28;20472;-78
2022/12/15 01:48:23;;;;;;;37.17;16.03;;;-2.40;82.70;;;;;;4977105;28;20985;-79
2022/12/15 01:50:57;;;;;;;46.03;16.53;;;-2.40;82.60;;;;;;4987313;28;20471;-78
2022/12/15 01:53:26;;;;;;;32.70;15.77;;;-2.40;82.60;;;;;;4997563;28;20487;-77
2022/12/15 01:55:54;;;;;;;38.07;17.40;;;-2.40;82.60;;;;;;4999968;28;20444;-79
2022/12/15 01:58:22;;;;;;;37.53;15.97;;;-2.40;82.60;;;;;;4998364;28;20820;-78
2022/12/15 02:00:50;;;;;;;45.20;17.07;;;-2.40;82.50;;;;;;4997992;28;20535;-78
2022/12/15 02:03:18;;;;;;;35.07;16.53;;;-2.40;82.30;;;;;;4998225;28;20428;-79
2022/12/15 02:05:46;;;;;;;35.17;15.37;;;-2.40;82.10;;;;;;4998185;28;20559;-78
2022/12/15 02:08:12;;;;;;;40.97;17.63;;;-2.40;82.30;;;;;;5000764;28;20445;-79
2022/12/15 02:10:56;;;;;;;33.23;17.40;;;-2.40;82.30;;;;;;4999765;28;20831;-79
2022/12/15 02:13:31;;;;;;;37.00;18.23;;;-2.40;82.40;;;;;;4995752;28;20481;-78
2022/12/15 02:16:07;;;;;;;34.00;17.87;;;-2.40;82.60;;;;;;4995793;28;20432;-78
2022/12/15 02:18:55;;;;;;;39.53;18.00;;;-2.50;82.40;;;;;;4994891;28;20443;-78
2022/12/15 02:21:29;;;;;;;28.83;15.50;;;-2.50;82.30;;;;;;5001542;28;20428;-78
2022/12/15 02:24:33;;;;;;;33.70;18.40;;;-2.50;82.40;;;;;;4998600;28;20461;-78
2022/12/15 02:27:28;;;;;;;49.37;20.43;;;-2.50;82.80;;;;;;5001186;28;20980;-79
2022/12/15 02:30:17;;;;;;;38.63;20.50;;;-2.50;83.50;;;;;;4999103;28;20437;-78
2022/12/15 02:32:52;;;;;;;40.67;19.10;;;-2.50;84.90;;;;;;5000091;28;20979;-79
2022/12/15 02:35:24;;;;;;;53.73;19.30;;;-2.50;85.60;;;;;;5000648;28;20480;-79
2022/12/15 02:37:52;;;;;;;37.60;18.93;;;-2.50;86.70;;;;;;4999839;28;20456;-79
2022/12/15 02:40:19;;;;;;;36.70;19.47;;;-2.50;87.60;;;;;;4999341;28;20873;-79
2022/12/15 02:42:51;;;;;;;44.00;19.47;;;-2.60;88.30;;;;;;4999652;28;20460;-79
2022/12/15 02:45:22;;;;;;;45.47;21.20;;;-2.50;89.20;;;;;;4999229;28;20472;-79
2022/12/15 02:47:56;;;;;;;41.70;19.70;;;-2.50;89.40;;;;;;4999271;28;20444;-79
2022/12/15 02:50:42;;;;;;;39.80;19.43;;;-2.50;89.50;;;;;;5000236;28;20440;-79
2022/12/15 02:53:23;;;;;;;48.20;21.17;;;-2.50;89.80;;;;;;5001424;28;20850;-78
2022/12/15 02:55:59;;;;;;;50.53;20.00;;;-2.50;90.10;;;;;;5000140;28;20461;-78
2022/12/15 02:58:31;;;;;;;40.73;19.93;;;-2.60;90.10;;;;;;5000107;28;20440;-78
2022/12/15 03:01:05;;;;;;;39.90;19.20;;;-2.50;90.20;;;;;;5000020;28;20433;-78
2022/12/15 03:03:35;;;;;;;50.50;20.37;;;-2.50;90.30;;;;;;4999470;28;20795;-78
2022/12/15 03:06:04;;;;;;;48.50;19.20;;;-2.40;90.30;;;;;;4999556;28;20449;-79
2022/12/15 03:08:31;;;;;;;45.23;21.03;;;-2.40;90.30;;;;;;4998107;28;20453;-78
2022/12/15 03:10:58;;;;;;;38.57;19.77;;;-2.40;90.40;;;;;;4997308;28;20444;-78
2022/12/15 03:13:26;;;;;;;35.73;18.67;;;-2.40;90.70;;;;;;4997420;28;20479;-78
2022/12/15 03:16:06;;;;;;;46.23;19.40;;;-2.40;90.20;;;;;;5002245;28;20445;-79
2022/12/15 03:18:33;;;;;;;34.80;20.70;;;-2.40;90.10;;;;;;5009657;28;20433;-78
2022/12/15 03:21:00;;;;;;;43.40;17.90;;;-2.30;89.80;;;;;;5002282;28;20457;-77
2022/12/15 03:23:27;;;;;;;48.70;21.63;;;-2.30;89.50;;;;;;4997126;28;20449;-78
2022/12/15 03:25:54;;;;;;;43.00;19.50;;;-2.30;89.10;;;;;;4997252;28;20806;-78
2022/12/15 03:28:21;;;;;;;37.07;17.10;;;-2.30;88.80;;;;;;4997557;28;20441;-78
2022/12/15 03:30:50;;;;;;;35.03;18.43;;;-2.30;88.40;;;;;;4996843;28;20828;-78
2022/12/15 03:33:18;;;;;;;46.20;20.23;;;-2.30;88.10;;;;;;4997043;28;20455;-79
2022/12/15 03:35:44;;;;;;;35.97;19.07;;;-2.30;87.60;;;;;;4997229;28;20469;-78
2022/12/15 03:38:12;;;;;;;43.83;17.90;;;-2.30;87.30;;;;;;4997104;28;20449;-78
2022/12/15 03:40:39;;;;;;;37.40;19.80;;;-2.30;87.10;;;;;;4997126;28;20464;-78
2022/12/15 03:43:05;;;;;;;47.80;19.60;;;-2.30;87.10;;;;;;4996996;28;20456;-79
2022/12/15 03:45:39;;;;;;;46.07;18.37;;;-2.30;86.90;;;;;;4997387;28;20465;-78
2022/12/15 03:48:06;;;;;;;43.17;18.77;;;-2.30;86.50;;;;;;4997782;28;20433;-78
2022/12/15 03:50:34;;;;;;;31.40;17.33;;;-2.30;86.20;;;;;;4997823;28;20464;-79
2022/12/15 03:53:03;;;;;;;33.00;16.60;;;-2.30;86.00;;;;;;4997865;28;20814;-78
2022/12/15 03:55:31;;;;;;;25.87;17.83;;;-2.40;86.10;;;;;;4997458;28;21031;-78
2022/12/15 03:57:58;;;;;;;32.70;18.73;;;-2.40;86.30;;;;;;4999793;28;20456;-79
2022/12/15 04:00:25;;;;;;;34.83;19.50;;;-2.40;86.80;;;;;;4999533;28;20488;-78
2022/12/15 04:02:55;;;;;;;38.07;18.00;;;-2.40;86.90;;;;;;4997327;28;20533;-79
2022/12/15 04:05:25;;;;;;;38.50;18.40;;;-2.40;86.90;;;;;;4997924;28;20814;-79
2022/12/15 04:07:54;;;;;;;54.73;18.23;;;-2.40;86.80;;;;;;4999230;28;20847;-79
2022/12/15 04:10:32;;;;;;;32.03;18.10;;;-2.40;86.70;;;;;;5000128;28;20460;-79
2022/12/15 04:13:00;;;;;;;48.83;18.77;;;-2.40;86.60;;;;;;4999345;28;20454;-79
2022/12/15 04:15:26;;;;;;;36.60;20.47;;;-2.40;86.60;;;;;;4998490;28;20851;-79
2022/12/15 04:17:53;;;;;;;37.50;19.33;;;-2.40;86.70;;;;;;4996582;28;20453;-78
2022/12/15 04:20:21;;;;;;;45.83;20.50;;;-2.50;87.00;;;;;;4997290;28;20821;-78
2022/12/15 04:22:49;;;;;;;28.50;17.73;;;-2.50;88.10;;;;;;4996738;28;20449;-78
2022/12/15 05:34:18;;;;;;;33.70;17.90;;;-2.50;90.20;;;;;;4999980;28;20483;-79
2022/12/15 05:36:45;;;;;;;36.00;19.87;;;-2.50;90.30;;;;;;5000756;28;20544;-79
2022/12/15 05:39:12;;;;;;;26.07;17.97;;;-2.60;90.50;;;;;;5000052;28;20444;-79
2022/12/15 05:41:39;;;;;;;33.10;20.47;;;-2.60;90.70;;;;;;5000442;28;20452;-79
2022/12/15 05:44:06;;;;;;;33.97;20.53;;;-2.60;90.70;;;;;;4998961;28;20475;-79
2022/12/15 05:46:34;;;;;;;30.03;18.80;;;-2.60;90.70;;;;;;4998163;28;20452;-79
2022/12/15 05:49:04;;;;;;;33.30;18.70;;;-2.50;90.50;;;;;;4998635;28;20453;-79
2022/12/15 05:51:33;;;;;;;32.63;18.00;;;-2.50;90.40;;;;;;4999846;28;20429;-79
2022/12/15 05:53:59;;;;;;;29.30;18.77;;;-2.50;90.30;;;;;;5000387;28;20498;-79
2022/12/15 05:56:28;;;;;;;30.10;18.93;;;-2.50;90.20;;;;;;5004282;28;20436;-79
2022/12/15 05:58:56;;;;;;;26.03;18.30;;;-2.50;90.10;;;;;;5004044;28;20522;-79
2022/12/15 06:01:23;;;;;;;28.53;17.70;;;-2.50;89.90;;;;;;5004806;28;20526;-79
2022/12/15 06:03:53;;;;;;;30.03;19.57;;;-2.50;89.50;;;;;;5003779;28;20818;-79
2022/12/15 06:06:20;;;;;;;33.53;17.97;;;-2.50;89.10;;;;;;5003592;28;20440;-79
2022/12/15 06:08:47;;;;;;;35.63;20.30;;;-2.50;89.00;;;;;;5003408;28;20448;-79
2022/12/15 06:11:15;;;;;;;27.10;18.87;;;-2.50;88.60;;;;;;5002699;28;20796;-79
2022/12/15 06:13:53;;;;;;;28.37;17.87;;;-2.50;88.30;;;;;;5001650;28;20452;-79
2022/12/15 06:16:21;;;;;;;28.00;18.40;;;-2.50;88.20;;;;;;5002790;28;20812;-78
2022/12/15 06:18:49;;;;;;;29.00;17.77;;;-2.50;88.00;;;;;;5001909;28;20813;-78
2022/12/15 06:21:20;;;;;;;27.00;18.80;;;-2.50;88.10;;;;;;5002104;28;20452;-79
2022/12/15 06:23:47;;;;;;;30.10;19.00;;;-2.50;88.20;;;;;;5003271;28;20487;-78
2022/12/15 06:26:17;;;;;;;32.10;20.10;;;-2.50;88.20;;;;;;5001223;28;20467;-78
2022/12/15 06:28:45;;;;;;;34.73;20.70;;;-2.50;88.10;;;;;;5001840;28;20441;-79
2022/12/15 06:31:24;;;;;;;31.00;20.57;;;-2.50;88.00;;;;;;5001895;28;20500;-78
2022/12/15 06:33:51;;;;;;;31.27;18.33;;;-2.50;87.80;;;;;;5001449;28;20468;-78
2022/12/15 06:36:20;;;;;;;32.40;19.80;;;-2.50;87.40;;;;;;5001784;28;20460;-78
2022/12/15 06:38:47;;;;;;;43.60;20.13;;;-2.50;87.20;;;;;;5001063;28;20844;-77
2022/12/15 06:41:16;;;;;;;34.57;19.70;;;-2.60;86.90;;;;;;5000989;28;20437;-77
2022/12/15 06:43:48;;;;;;;32.57;19.70;;;-2.60;86.60;;;;;;5000479;28;20532;-77
2022/12/15 06:46:15;;;;;;;35.40;18.63;;;-2.60;86.50;;;;;;5000675;28;20429;-78
2022/12/15 06:48:43;;;;;;;29.77;19.40;;;-2.60;87.00;;;;;;5000653;28;20448;-78
2022/12/15 06:51:12;;;;;;;30.47;19.27;;;-2.70;87.60;;;;;;5000643;28;20436;-77
2022/12/15 06:53:41;;;;;;;39.50;21.93;;;-2.70;88.40;;;;;;5000969;28;20488;-78
2022/12/15 06:56:15;;;;;;;32.40;18.53;;;-2.60;88.80;;;;;;5000715;28;20484;-78
2022/12/15 06:58:42;;;;;;;33.00;20.43;;;-2.60;88.80;;;;;;5001145;28;20456;-77
2022/12/15 07:01:11;;;;;;;33.70;19.50;;;-2.60;88.70;;;;;;5000510;28;20474;-78
2022/12/15 07:03:45;;;;;;;37.30;22.50;;;-2.70;88.50;;;;;;5000447;28;20765;-78
2022/12/15 07:06:15;;;;;;;32.70;18.97;;;-2.70;88.60;;;;;;4998391;28;20779;-78
2022/12/15 07:08:43;;;;;;;35.30;20.27;;;-2.70;89.00;;;;;;4997372;28;20436;-78
2022/12/15 07:11:12;;;;;;;33.80;20.50;;;-2.70;89.30;;;;;;4997997;28;20459;-78
2022/12/15 07:13:39;;;;;;;35.57;19.53;;;-2.70;89.50;;;;;;4997560;28;20502;-78
2022/12/15 07:16:26;;;;;;;32.27;20.07;;;-2.70;89.50;;;;;;4997078;28;21000;-78
2022/12/15 07:18:52;;;;;;;35.17;19.63;;;-2.70;89.60;;;;;;4997046;28;20917;-78
2022/12/15 07:21:19;;;;;;;30.67;19.70;;;-2.70;89.50;;;;;;4997108;28;20478;-78
2022/12/15 07:23:47;;;;;;;35.97;20.80;;;-2.70;89.30;;;;;;4997086;28;20473;-78
2022/12/15 07:26:14;;;;;;;30.70;19.97;;;-2.70;89.10;;;;;;4996637;28;20463;-78
2022/12/15 07:28:40;;;;;;;35.20;20.40;;;-2.70;88.70;;;;;;4997431;28;20476;-78
2022/12/15 07:31:14;;;;;;;37.57;21.60;;;-2.70;88.40;;;;;;4997311;28;20520;-77
2022/12/15 07:33:40;;;;;;;31.73;19.90;;;-2.70;88.10;;;;;;4996667;28;20433;-78
2022/12/15 07:36:09;;;;;;;33.83;19.60;;;-2.70;87.80;;;;;;4996914;28;20496;-78
2022/12/15 07:38:37;;;;;;;43.97;21.40;;;-2.70;87.60;;;;;;4997594;28;20444;-77
2022/12/15 07:41:07;;;;;;;37.63;21.07;;;-2.70;87.70;;;;;;4996532;28;20457;-77
2022/12/15 07:43:33;;;;;;;33.93;18.93;;;-2.70;87.60;;;;;;4997186;28;20449;-78
2022/12/15 07:46:00;;;;;;;34.87;20.27;;;-2.70;87.40;;;;;;4997298;28;20460;-78
2022/12/15 07:48:29;;;;;;;36.80;21.23;;;-2.70;87.30;;;;;;4997040;28;20458;-77
2022/12/15 07:50:58;;;;;;;30.10;19.10;;;-2.70;88.20;;;;;;4996197;28;20448;-77
2022/12/15 07:53:28;;;;;;;38.33;20.00;;;-2.70;87.70;;;;;;4996299;28;20443;-78
2022/12/15 07:55:57;;;;;;;38.07;21.30;;;-2.70;88.00;;;;;;4996176;28;20480;-78
2022/12/15 07:58:26;;;;;;;35.63;23.27;;;-2.70;88.10;;;;;;4996700;28;20814;-78
2022/12/15 08:00:58;;;;;;;35.33;20.37;;;-2.70;88.20;;;;;;4996460;28;20464;-77
2022/12/15 08:03:32;;;;;;;34.83;20.53;;;-2.70;88.20;;;;;;4996005;28;20429;-78
2022/12/15 08:06:04;;;;;;;38.13;20.70;;;-2.70;88.20;;;;;;4996387;28;20448;-78
2022/12/15 08:08:34;;;;;;;36.90;22.23;;;-2.70;88.20;;;;;;4996724;28;20429;-78
2022/12/15 08:11:05;;;;;;;43.80;20.57;;;-2.70;88.10;;;;;;4997248;28;20445;-77
2022/12/15 08:13:33;;;;;;;30.67;21.70;;;-2.70;88.00;;;;;;5003298;28;20425;-77
2022/12/15 08:16:09;;;;;;;34.93;20.60;;;-2.70;88.00;;;;;;5007059;28;20476;-76
2022/12/15 08:18:35;;;;;;;41.93;21.73;;;-2.70;88.20;;;;;;5004287;28;20444;-76
2022/12/15 08:21:02;;;;;;;33.90;20.10;;;-2.70;88.30;;;;;;5011357;28;20425;-75
2022/12/15 08:23:31;;;;;;;34.23;21.30;;;-2.60;88.50;;;;;;4999894;28;20460;-77
2022/12/15 08:26:02;;;;;;;35.60;20.07;;;-2.60;88.50;;;;;;4998978;28;20815;-77
2022/12/15 08:28:37;;;;;;;33.47;21.43;;;-2.60;88.60;;;;;;4998443;28;20457;-77
2022/12/15 08:31:08;;;;;;;35.27;21.87;;;-2.60;88.80;;;;;;4997052;28;20436;-77
2022/12/15 08:33:37;;;;;;;31.50;20.83;;;-2.60;89.10;;;;;;4997591;28;20441;-76
2022/12/15 08:36:06;;;;;;;33.97;19.20;;;-2.60;89.60;;;;;;4997315;28;20879;-77
2022/12/15 08:38:34;;;;;;;34.87;20.33;;;-2.60;89.80;;;;;;4997053;28;20441;-77
2022/12/15 08:41:07;;;;;;;32.87;19.70;;;-2.60;90.00;;;;;;4996762;28;20449;-77
2022/12/15 08:43:41;;;;;;;33.67;20.90;;;-2.70;90.30;;;;;;4996173;28;20448;-77
2022/12/15 08:46:08;;;;;;;33.57;21.30;;;-2.70;90.40;;;;;;4995446;28;20429;-77
2022/12/15 08:48:35;;;;;;;36.00;21.87;;;-2.70;90.60;;;;;;4995622;28;20459;-77
2022/12/15 08:51:04;;;;;;;32.77;19.73;;;-2.60;90.80;;;;;;4995370;28;20511;-76
2022/12/15 08:53:31;;;;;;;38.37;21.00;;;-2.60;90.80;;;;;;4995426;28;20909;-77
2022/12/15 08:56:02;;;;;;;46.07;22.40;;;-2.60;90.90;;;;;;4995393;28;20465;-77
2022/12/15 08:58:29;;;;;;;35.70;18.20;;;-2.50;91.00;;;;;;4996954;28;20500;-77
2022/12/15 09:01:01;;;;;;;30.00;20.27;;;-2.60;91.00;;;;;;4995168;28;20463;-77
2022/12/15 09:03:28;;;;;;;38.63;22.57;;;-2.60;91.20;;;;;;4995157;28;20797;-77
2022/12/15 09:05:56;;;;;;;34.43;20.13;;;-2.50;91.30;;;;;;4995211;28;20433;-77
2022/12/15 09:08:23;;;;;;;31.40;21.10;;;-2.60;91.20;;;;;;4995684;28;20467;-77
2022/12/15 09:10:52;;;;;;;40.80;20.03;;;-2.60;91.30;;;;;;4995612;28;20535;-76
2022/12/15 09:13:19;;;;;;;32.60;19.40;;;-2.60;91.40;;;;;;4995225;28;20433;-77
2022/12/15 09:15:46;;;;;;;28.50;17.70;;;-2.50;91.50;;;;;;4995167;28;20491;-77
2022/12/15 09:18:21;;;;;;;36.90;22.10;;;-2.50;91.60;;;;;;4995361;28;20461;-76
2022/12/15 09:20:49;;;;;;;32.80;19.90;;;-2.50;91.70;;;;;;4994895;28;20429;-76
2022/12/15 09:23:15;;;;;;;38.03;20.37;;;-2.40;91.90;;;;;;4995267;28;20429;-77
2022/12/15 09:25:59;;;;;;;32.97;20.23;;;-2.40;91.80;;;;;;4994752;28;20472;-77
2022/12/15 09:28:26;;;;;;;35.63;21.37;;;-2.30;91.90;;;;;;4994548;28;20471;-78
2022/12/15 09:31:01;;;;;;;36.70;21.80;;;-2.30;91.90;;;;;;4994586;28;20452;-78
2022/12/15 09:33:29;;;;;;;30.50;20.63;;;-2.20;92.10;;;;;;4994583;28;20443;-78
2022/12/15 09:35:56;;;;;;;36.60;21.90;;;-2.20;92.40;;;;;;4994623;28;20848;-78
2022/12/15 09:38:23;;;;;;;34.63;20.87;;;-2.10;92.20;;;;;;4994387;28;20456;-78
2022/12/15 09:40:49;;;;;;;41.03;20.57;;;-2.00;92.30;;;;;;4994633;28;20456;-78
2022/12/15 09:43:20;;;;;;;38.80;18.83;;;-1.90;92.40;;;;;;4994843;28;20433;-78
2022/12/15 09:45:52;;;;;;;38.93;23.10;;;-1.80;92.40;;;;;;4994909;28;20472;-79
2022/12/15 09:48:21;;;;;;;44.73;25.50;;;-1.70;92.20;;;;;;4994305;28;20468;-78
2022/12/15 09:50:56;;;;;;;44.10;23.63;;;-1.70;92.00;;;;;;4994711;28;20436;-79
2022/12/15 09:53:32;;;;;;;40.77;23.20;;;-1.60;92.00;;;;;;4994774;28;20428;-79
2022/12/15 09:56:13;;;;;;;42.37;25.30;;;-1.60;92.10;;;;;;4994874;28;20468;-79
2022/12/15 09:58:48;;;;;;;48.50;24.90;;;-1.50;92.30;;;;;;4996295;28;20444;-79
2022/12/15 10:01:32;;;;;;;48.67;29.10;;;-1.40;92.60;;;;;;5005179;28;20447;-78
2022/12/15 10:04:07;;;;;;;56.57;27.53;;;-1.30;92.80;;;;;;5000142;28;20504;-78
2022/12/15 10:06:41;;;;;;;58.17;29.83;;;-1.20;92.90;;;;;;4996795;28;20504;-78
2022/12/15 10:09:14;;;;;;;52.23;29.37;;;-1.10;92.90;;;;;;4995407;28;20879;-78
2022/12/15 10:11:47;;;;;;;56.63;30.17;;;-1.00;92.90;;;;;;4994949;28;20440;-78
2022/12/15 10:14:23;;;;;;;58.90;29.87;;;-0.90;92.90;;;;;;4994935;28;20469;-76
2022/12/15 10:16:59;;;;;;;64.73;31.53;;;-0.70;93.00;;;;;;4994555;28;20468;-77
2022/12/15 10:19:34;;;;;;;63.37;32.97;;;-0.60;92.90;;;;;;4994034;28;20437;-77
2022/12/15 10:22:03;;;;;;;63.03;32.70;;;-0.60;92.90;;;;;;4994371;28;20455;-77
2022/12/15 10:24:32;;;;;;;56.93;32.00;;;-0.40;92.90;;;;;;4994753;28;20468;-77
2022/12/15 10:27:16;;;;;;;57.50;32.83;;;-0.40;92.80;;;;;;4994290;28;20483;-76
2022/12/15 10:29:51;;;;;;;59.53;32.10;;;-0.30;92.70;;;;;;4994035;28;20944;-77
2022/12/15 10:32:20;;;;;;;58.40;34.33;;;-0.20;92.50;;;;;;4994238;28;20456;-77
2022/12/15 10:34:47;;;;;;;60.13;32.30;;;-0.20;92.40;;;;;;4993934;28;20820;-76
2022/12/15 10:37:19;;;;;;;62.50;33.10;;;-0.10;92.50;;;;;;4994373;28;20456;-77
2022/12/15 10:39:50;;;;;;;60.80;33.30;;;0.10;92.50;;;;;;4994368;28;20437;-76
2022/12/15 10:42:20;;;;;;;57.60;32.20;;;0.10;92.40;;;;;;4996336;28;20448;-77
2022/12/15 10:44:49;;;;;;;61.20;33.10;;;0.30;92.40;;;;;;4997781;28;20530;-77
2022/12/15 10:47:19;;;;;;;68.40;35.90;;;0.40;92.40;;;;;;4997500;28;20448;-77
2022/12/15 10:49:53;;;;;;;65.40;33.60;;;0.50;92.40;;;;;;5000775;28;20464;-77
2022/12/15 10:52:26;;;;;;;66.00;34.43;;;0.60;92.40;;;;;;5017191;28;20432;-77
2022/12/15 10:54:56;;;;;;;61.93;33.63;;;0.80;92.40;;;;;;5017009;28;20530;-76
2022/12/15 10:57:27;;;;;;;62.60;33.90;;;0.90;92.20;;;;;;5017924;28;20468;-77
2022/12/15 10:59:55;;;;;;;61.27;33.27;;;1.00;91.90;;;;;;5018036;28;20458;-77
2022/12/15 11:02:32;;;;;;;59.00;34.00;;;1.10;91.60;;;;;;5016972;28;20443;-77
2022/12/15 11:05:01;;;;;;;59.13;33.87;;;1.20;91.20;;;;;;5016627;28;20479;-77
2022/12/15 11:07:34;;;;;;;63.30;33.90;;;1.40;91.10;;;;;;5016729;28;20455;-77
2022/12/15 11:10:14;;;;;;;57.80;33.63;;;1.50;91.00;;;;;;5016995;28;20431;-77
2022/12/15 11:12:52;;;;;;;57.30;34.50;;;1.70;91.00;;;;;;5016302;28;20441;-77
2022/12/15 11:15:46;;;;;;;60.27;32.47;;;2.00;90.90;;;;;;5017366;28;20467;-77
2022/12/15 11:18:29;;;;;;;56.37;33.40;;;2.30;90.10;;;;;;5007345;28;20460;-77
2022/12/15 11:21:11;;;;;;;55.43;32.20;;;2.60;89.70;;;;;;5016382;28;20452;-77
2022/12/15 11:23:51;;;;;;;58.23;34.80;;;2.80;88.50;;;;;;5017118;28;20538;-78
2022/12/15 11:26:29;;;;;;;57.50;34.90;;;3.10;87.30;;;;;;5016732;28;20419;-77
2022/12/15 11:29:00;;;;;;;59.43;33.77;;;3.30;86.20;;;;;;5016353;28;20462;-77
2022/12/15 11:31:34;;;;;;;59.70;33.27;;;3.50;85.20;;;;;;5017383;28;20511;-77
2022/12/15 11:34:03;;;;;;;58.20;35.63;;;3.80;84.00;;;;;;5018166;28;20473;-78
2022/12/15 11:36:49;;;;;;;52.03;33.70;;;4.00;83.00;;;;;;5016686;28;20985;-77
2022/12/15 11:39:27;;;;;;;57.20;34.50;;;4.20;82.00;;;;;;5016152;28;20433;-77
2022/12/15 11:42:07;;;;;;;62.37;32.07;;;4.40;80.40;;;;;;5016333;28;20444;-78
2022/12/15 11:44:45;;;;;;;60.47;34.87;;;4.60;79.30;;;;;;5016380;28;20874;-77
2022/12/15 11:47:21;;;;;;;63.03;34.57;;;4.70;78.00;;;;;;5015963;28;20949;-77
2022/12/15 11:50:16;;;;;;;56.30;35.30;;;4.90;77.00;;;;;;5015979;28;20465;-77
2022/12/15 11:52:53;;;;;;;53.67;33.60;;;5.00;76.00;;;;;;5015560;28;20431;-78
2022/12/15 11:55:31;;;;;;;56.30;35.00;;;5.10;74.90;;;;;;5015427;28;21031;-77
2022/12/15 11:58:10;;;;;;;55.90;35.40;;;5.10;74.10;;;;;;5015610;28;20445;-77
2022/12/15 12:00:42;;;;;;;56.50;34.73;;;5.20;73.40;;;;;;5015689;28;20454;-77
2022/12/15 12:03:29;;;;;;;51.50;32.30;;;5.20;73.10;;;;;;5015757;28;20804;-78
2022/12/15 12:06:07;;;;;;;56.13;33.50;;;5.30;72.60;;;;;;5015360;28;20977;-77
2022/12/15 12:09:02;;;;;;;52.27;32.77;;;5.30;72.00;;;;;;5015486;28;20448;-77
2022/12/15 12:11:43;;;;;;;51.80;32.67;;;5.40;71.40;;;;;;5006542;28;20471;-77
2022/12/15 12:14:26;;;;;;;48.03;31.57;;;5.40;70.80;;;;;;5015366;28;20489;-77
2022/12/15 12:17:02;;;;;;;51.03;30.93;;;5.50;70.40;;;;;;5015239;28;20482;-76
2022/12/15 12:19:34;;;;;;;48.00;31.60;;;5.60;70.10;;;;;;5015916;28;20453;-76
2022/12/15 12:22:23;;;;;;;54.20;33.60;;;5.70;69.30;;;;;;5015211;28;20494;-78
2022/12/15 12:24:54;;;;;;;49.83;33.13;;;5.80;68.90;;;;;;5015104;28;20473;-77
2022/12/15 12:27:31;;;;;;;51.67;32.57;;;5.80;68.30;;;;;;5015170;28;20447;-77
2022/12/15 12:30:02;;;;;;;44.57;30.20;;;5.90;67.60;;;;;;5015176;28;20867;-78
2022/12/15 12:32:38;;;;;;;49.20;32.03;;;6.00;67.30;;;;;;5015099;28;20428;-77
2022/12/15 12:35:10;;;;;;;50.20;32.80;;;6.00;67.10;;;;;;5014700;28;20991;-78
2022/12/15 12:37:42;;;;;;;50.30;32.40;;;6.10;66.60;;;;;;5014587;28;20974;-78
2022/12/15 12:40:19;;;;;;;44.70;32.07;;;6.20;66.20;;;;;;5014795;28;20440;-77
2022/12/15 12:42:55;;;;;;;60.30;32.83;;;6.30;65.80;;;;;;5014590;28;20879;-77
2022/12/15 12:45:27;;;;;;;49.60;31.60;;;6.40;65.60;;;;;;5014802;28;20479;-78
2022/12/15 12:47:59;;;;;;;46.40;32.90;;;6.40;64.80;;;;;;5015457;28;20777;-77
2022/12/15 12:50:28;;;;;;;43.33;31.50;;;6.50;64.40;;;;;;5014860;28;20431;-78
2022/12/15 12:52:58;;;;;;;48.93;32.60;;;6.50;63.90;;;;;;5014724;28;20802;-78
2022/12/15 12:55:36;;;;;;;47.13;31.40;;;6.50;63.50;;;;;;5014752;28;20470;-78
2022/12/15 12:58:04;;;;;;;53.50;33.37;;;6.50;63.10;;;;;;5014532;28;20428;-78
2022/12/15 13:00:36;;;;;;;50.33;33.10;;;6.40;62.90;;;;;;5014559;28;20824;-78
2022/12/15 13:03:25;;;;;;;52.30;34.00;;;6.40;63.00;;;;;;5014448;28;20455;-78
2022/12/15 13:06:00;;;;;;;46.30;32.50;;;6.30;63.00;;;;;;5014162;28;20436;-77
2022/12/15 13:08:50;;;;;;;51.87;33.33;;;6.30;62.90;;;;;;5014393;28;20434;-77
2022/12/15 13:11:57;;;;;;;54.60;33.93;;;6.20;62.70;;;;;;5013909;28;20935;-78
2022/12/15 13:14:46;;;;;;;55.33;37.20;;;6.10;62.50;;;;;;5014233;28;20474;-77
2022/12/15 13:17:23;;;;;;;53.50;35.93;;;5.90;63.30;;;;;;5014159;28;20473;-78
2022/12/15 13:20:24;;;;;;;48.33;33.50;;;5.70;63.00;;;;;;5014117;28;20441;-78
2022/12/15 13:23:29;;;;;;;51.97;32.33;;;5.30;63.80;;;;;;4972985;28;20470;-77
2022/12/15 13:26:12;;;;;;;54.17;34.50;;;4.90;64.60;;;;;;5010410;28;20449;-78
2022/12/15 13:28:43;;;;;;;61.73;36.23;;;4.60;65.80;;;;;;5013958;28;20454;-77
2022/12/15 13:31:32;;;;;;;66.70;39.93;;;4.40;66.80;;;;;;5014072;28;20434;-77
2022/12/15 13:34:14;;;;;;;63.70;38.07;;;4.20;67.80;;;;;;5014168;28;20464;-78
2022/12/15 13:36:57;;;;;;;69.40;40.17;;;4.00;68.70;;;;;;5014054;28;20881;-77
2022/12/15 13:39:55;;;;;;;68.60;38.23;;;3.80;69.60;;;;;;5013975;28;20435;-79
2022/12/15 13:42:27;;;;;;;59.90;37.33;;;3.60;70.40;;;;;;5014354;28;20498;-78
2022/12/15 13:44:57;;;;;;;65.83;39.10;;;3.40;71.20;;;;;;5014491;28;20479;-77
2022/12/15 13:47:29;;;;;;;63.83;38.43;;;3.30;71.90;;;;;;5014207;28;20455;-77
2022/12/15 13:50:00;;;;;;;67.20;39.17;;;3.20;72.70;;;;;;5009784;28;20468;-77
2022/12/15 13:52:32;;;;;;;67.30;39.47;;;3.10;73.20;;;;;;4994220;28;20441;-77
2022/12/15 13:55:01;;;;;;;73.90;38.90;;;3.00;73.70;;;;;;4994614;28;20471;-78
2022/12/15 13:57:34;;;;;;;70.03;39.23;;;2.90;74.40;;;;;;4993889;28;21014;-77
2022/12/15 14:00:06;;;;;;;65.23;36.63;;;2.90;75.30;;;;;;4994098;28;20457;-77
2022/12/15 14:02:35;;;;;;;67.03;39.10;;;2.80;76.00;;;;;;4994163;28;20430;-77
2022/12/15 14:05:15;;;;;;;60.20;36.07;;;2.70;76.60;;;;;;4994366;28;20469;-77
2022/12/15 14:07:45;;;;;;;62.93;37.13;;;2.70;78.00;;;;;;4994002;28;20434;-77
2022/12/15 14:10:19;;;;;;;65.50;38.00;;;2.60;77.80;;;;;;4994285;28;20921;-77
2022/12/15 14:12:55;;;;;;;62.97;37.20;;;2.60;78.20;;;;;;4994610;28;20433;-77
2022/12/15 14:15:27;;;;;;;59.27;35.20;;;2.60;78.70;;;;;;4995185;28;20459;-77
2022/12/15 14:17:57;;;;;;;59.83;36.93;;;2.60;78.90;;;;;;4998189;28;20838;-78
2022/12/15 14:20:27;;;;;;;61.37;35.47;;;2.50;79.10;;;;;;4998463;28;20450;-77
2022/12/15 14:22:56;;;;;;;60.70;35.40;;;2.50;79.20;;;;;;4999046;28;20929;-77
2022/12/15 14:25:28;;;;;;;54.70;34.87;;;2.40;79.30;;;;;;4999541;28;20949;-77
2022/12/15 14:28:03;;;;;;;52.73;34.67;;;2.40;79.50;;;;;;4998903;28;20437;-77
2022/12/15 14:30:36;;;;;;;61.77;35.40;;;2.30;79.70;;;;;;4998501;28;20792;-77
2022/12/15 14:33:14;;;;;;;62.07;36.30;;;2.30;79.90;;;;;;4998543;28;20895;-77
2022/12/15 14:35:44;;;;;;;58.23;35.37;;;2.30;80.20;;;;;;5003171;28;20831;-77
2022/12/15 14:38:16;;;;;;;61.03;36.20;;;2.20;80.30;;;;;;5011172;28;20991;-77
2022/12/15 14:40:54;;;;;;;55.73;33.03;;;2.20;80.50;;;;;;5006612;28;20432;-76
2022/12/15 14:43:27;;;;;;;58.07;34.67;;;2.10;80.70;;;;;;5017361;28;20438;-77
2022/12/15 14:46:04;;;;;;;61.90;35.60;;;2.10;80.90;;;;;;5004903;28;20433;-77
2022/12/15 14:48:37;;;;;;;51.77;34.07;;;2.00;81.20;;;;;;5001434;28;20435;-77
2022/12/15 14:51:09;;;;;;;50.40;32.70;;;2.00;81.30;;;;;;5000701;28;20429;-77
2022/12/15 14:53:40;;;;;;;55.73;33.70;;;1.90;81.50;;;;;;5001306;28;20440;-77
2022/12/15 14:56:24;;;;;;;61.17;34.77;;;1.80;81.60;;;;;;4999799;28;20437;-77
2022/12/15 14:59:02;;;;;;;52.00;32.77;;;1.80;82.00;;;;;;4999398;28;20838;-77
2022/12/15 15:01:39;;;;;;;53.00;34.17;;;1.70;82.20;;;;;;4999533;28;20436;-77
2022/12/15 15:04:27;;;;;;;59.87;34.73;;;1.70;82.60;;;;;;4999004;28;20499;-77
2022/12/15 15:07:06;;;;;;;58.23;33.43;;;1.60;82.80;;;;;;4998283;28;20437;-77
2022/12/15 15:09:38;;;;;;;59.77;36.00;;;1.50;83.20;;;;;;4997682;28;20798;-77
2022/12/15 15:12:08;;;;;;;51.33;32.53;;;1.50;83.50;;;;;;4998094;28;20437;-78
2022/12/15 15:14:40;;;;;;;58.63;33.27;;;1.40;83.80;;;;;;4998817;28;20464;-78
2022/12/15 15:17:20;;;;;;;58.00;34.53;;;1.40;84.10;;;;;;4997831;28;20472;-77
2022/12/15 15:19:51;;;;;;;61.60;36.37;;;1.30;84.20;;;;;;4997988;28;20468;-77